YBBA weather

Barraba Airport
New South Wales, Australia

Public forecast

Using degrees Celsius for public forecast. Weather courtesy of forecast.io.

Closest aviation weather report (METAR) to Barraba Airport

Closest report is Narrabri Airport, 40.2 nm (74.5 km) W. Retrieved 2019/11/17 13:00 UTC (52 minutes ago):

YNBR 171300Z AUTO 18007KT 9999 // NCD 18/M10 Q1017

Closest aviation forecast (TAF) to Barraba Airport

Forecast is more than 12 hours old.

Closest forecast is Tamworth Airport, 44.0 nm (81.4 km) SSE. Retrieved 2019-11-17 00:36 UTC (13 hours ago):

TAF YSTW 162259Z 1700/1718 26012KT 5000 -FU NSC FM170100 24013KT CAVOK FM171000 11010KT 5000 -FU NSC FM171300 12008KT 3000 -FU NSC PROB40 1700/1701 2000 FU PROB40 1709/1718 2000 FU